Time;durP1;ratioP1;P1;durP2;ratioP2;P2;SDS_P1;SDS_P2;PMS_P1;PMS_P2;Temp;Humidity;BMP_temperature;BMP_pressure;BME280_temperature;BME280_humidity;BME280_pressure;Samples;Min_cycle;Max_cycle;Signal;HPM_P1;HPM_P2
2024/04/11 00:01:08;;;;;;;6.90;5.30;;;10.40;99.90;;;;;;5422649;26;20489;-65
2024/04/11 00:03:36;;;;;;;7.80;5.97;;;10.30;99.90;;;;;;5423649;26;20532;-64
2024/04/11 00:06:09;;;;;;;7.33;5.80;;;10.30;99.90;;;;;;5419142;26;20666;-64
2024/04/11 00:08:36;;;;;;;7.43;5.90;;;10.30;99.90;;;;;;5423025;26;20961;-64
2024/04/11 00:11:06;;;;;;;7.10;5.93;;;10.30;99.90;;;;;;5424843;26;20474;-64
2024/04/11 00:13:33;;;;;;;6.93;6.23;;;10.40;99.90;;;;;;5420300;26;20481;-63
2024/04/11 00:16:04;;;;;;;6.03;5.53;;;10.40;99.90;;;;;;5419650;26;20477;-64
2024/04/11 00:18:32;;;;;;;6.53;5.83;;;10.40;99.90;;;;;;5424788;26;20473;-63
2024/04/11 00:21:01;;;;;;;8.47;6.50;;;10.30;99.90;;;;;;5420272;26;20477;-63
2024/04/11 00:23:31;;;;;;;6.60;5.90;;;10.30;99.90;;;;;;5416334;26;20525;-64
2024/04/11 00:26:04;;;;;;;6.03;5.53;;;10.30;99.90;;;;;;5426423;26;20485;-63
2024/04/11 00:28:31;;;;;;;6.00;5.33;;;10.40;99.90;;;;;;5414980;26;20477;-63
2024/04/11 00:31:01;;;;;;;6.03;5.33;;;10.40;99.90;;;;;;5423858;26;20539;-63
2024/04/11 00:33:28;;;;;;;7.33;6.57;;;10.40;99.90;;;;;;5420424;26;20469;-64
2024/04/11 00:35:59;;;;;;;7.07;6.13;;;10.40;99.90;;;;;;5420095;26;20546;-62
2024/04/11 00:38:27;;;;;;;8.17;5.70;;;10.40;99.90;;;;;;5423926;26;20469;-64
2024/04/11 00:41:01;;;;;;;8.17;5.87;;;10.40;99.90;;;;;;5421832;26;20558;-64
2024/04/11 00:43:30;;;;;;;9.53;6.63;;;10.30;99.90;;;;;;5412745;26;20522;-63
2024/04/11 00:46:01;;;;;;;7.17;6.47;;;10.30;99.90;;;;;;5423593;26;20545;-63
2024/04/11 00:48:28;;;;;;;6.80;6.13;;;10.30;99.90;;;;;;5425055;26;20875;-63
2024/04/11 00:51:00;;;;;;;6.70;5.80;;;10.20;99.90;;;;;;5412090;26;20530;-63
2024/04/11 00:53:28;;;;;;;8.90;6.60;;;10.20;99.90;;;;;;5420728;26;20495;-64
2024/04/11 00:56:00;;;;;;;7.07;6.47;;;10.20;99.90;;;;;;5420508;26;20491;-65
2024/04/11 00:58:28;;;;;;;8.50;6.97;;;10.20;99.90;;;;;;5422982;26;20559;-64
2024/04/11 01:00:58;;;;;;;7.00;6.10;;;10.10;99.90;;;;;;5412716;26;20497;-63
2024/04/11 01:03:25;;;;;;;8.27;7.00;;;10.10;99.90;;;;;;5417416;26;21113;-64
2024/04/11 01:05:56;;;;;;;8.63;7.00;;;10.20;99.90;;;;;;5423161;26;20479;-63
2024/04/11 01:08:26;;;;;;;8.87;6.40;;;10.10;99.90;;;;;;5426024;26;20485;-64
2024/04/11 01:10:56;;;;;;;7.00;6.30;;;10.10;99.90;;;;;;5421193;26;21243;-63
2024/04/11 01:13:29;;;;;;;7.00;6.10;;;10.20;99.90;;;;;;5416605;26;20529;-64
2024/04/11 01:15:57;;;;;;;7.80;7.00;;;10.30;99.90;;;;;;5421945;26;20477;-63
2024/04/11 01:18:27;;;;;;;6.97;6.37;;;10.20;99.90;;;;;;5414494;26;20477;-63
2024/04/11 01:20:55;;;;;;;8.90;7.20;;;10.20;99.90;;;;;;5414438;26;20477;-63
2024/04/11 01:23:27;;;;;;;9.93;6.97;;;10.20;99.90;;;;;;5418918;26;20479;-64
2024/04/11 01:25:54;;;;;;;8.10;7.30;;;10.20;99.90;;;;;;5418548;26;20544;-63
2024/04/11 01:28:24;;;;;;;7.73;6.97;;;10.30;99.90;;;;;;5416223;26;21166;-64
2024/04/11 01:30:52;;;;;;;7.30;6.60;;;10.20;99.90;;;;;;5421829;26;20538;-63
2024/04/11 01:33:23;;;;;;;9.27;7.77;;;10.20;99.90;;;;;;5419185;26;20496;-64
2024/04/11 01:35:50;;;;;;;10.77;7.10;;;10.20;99.90;;;;;;5419248;26;20944;-64
2024/04/11 01:38:20;;;;;;;8.83;6.13;;;10.20;99.90;;;;;;5418166;26;20594;-65
2024/04/11 01:40:50;;;;;;;7.77;7.00;;;10.10;99.90;;;;;;5415800;26;20477;-64
2024/04/11 01:43:20;;;;;;;7.20;6.60;;;10.10;99.90;;;;;;5419296;26;21142;-63
2024/04/11 01:45:47;;;;;;;7.77;6.33;;;10.10;99.90;;;;;;5414138;26;20539;-63
2024/04/11 01:48:17;;;;;;;6.80;6.10;;;10.20;99.90;;;;;;5422620;26;20490;-63
2024/04/11 01:50:46;;;;;;;8.13;7.20;;;10.20;99.90;;;;;;5419069;26;20485;-63
2024/04/11 01:53:16;;;;;;;8.90;6.43;;;10.20;99.90;;;;;;5417615;26;20882;-64
2024/04/11 01:55:44;;;;;;;11.80;6.90;;;10.20;99.90;;;;;;5420305;26;20490;-64
2024/04/11 01:58:18;;;;;;;8.53;5.97;;;10.30;99.90;;;;;;5415154;26;21219;-63
2024/04/11 02:00:47;;;;;;;9.90;6.50;;;10.30;99.90;;;;;;5419527;26;20474;-64
2024/04/11 02:03:18;;;;;;;5.77;5.20;;;10.30;99.90;;;;;;5412679;26;21042;-63
2024/04/11 02:05:46;;;;;;;6.97;5.37;;;10.40;99.90;;;;;;5424383;26;20482;-63
2024/04/11 02:08:16;;;;;;;5.67;4.63;;;10.40;99.90;;;;;;5414555;26;20470;-64
2024/04/11 02:10:44;;;;;;;8.60;4.63;;;10.40;99.90;;;;;;5410597;26;21463;-63
2024/04/11 02:13:16;;;;;;;6.20;4.43;;;10.40;99.90;;;;;;5415425;26;20482;-63
2024/04/11 02:15:45;;;;;;;5.40;4.30;;;10.50;99.90;;;;;;5409933;26;20773;-63
2024/04/11 02:18:15;;;;;;;5.57;4.00;;;10.50;99.90;;;;;;5408574;26;20549;-63
2024/04/11 02:20:42;;;;;;;4.40;4.00;;;10.60;99.90;;;;;;5413803;26;20495;-64
2024/04/11 02:23:12;;;;;;;5.37;4.07;;;10.70;99.90;;;;;;5409046;26;21192;-63
2024/04/11 02:25:39;;;;;;;5.07;4.17;;;10.80;99.90;;;;;;5412269;26;21109;-63
2024/04/11 02:28:09;;;;;;;4.93;4.03;;;10.70;99.90;;;;;;5403677;26;20495;-64
2024/04/11 02:30:39;;;;;;;4.20;3.67;;;10.80;99.90;;;;;;5410001;26;20526;-63
2024/04/11 02:33:10;;;;;;;5.43;3.87;;;10.80;99.90;;;;;;5410661;26;20491;-62
2024/04/11 02:35:38;;;;;;;6.30;3.80;;;10.90;99.90;;;;;;5410334;26;20486;-63
2024/04/11 02:38:08;;;;;;;5.90;4.17;;;11.00;99.90;;;;;;5403748;26;20479;-63
2024/04/11 02:40:37;;;;;;;5.83;4.53;;;11.00;99.90;;;;;;5407503;26;20477;-63
2024/04/11 02:43:08;;;;;;;4.13;3.70;;;11.00;99.90;;;;;;5405258;26;21101;-65
2024/04/11 02:45:38;;;;;;;5.87;4.07;;;11.10;99.90;;;;;;5414424;26;20491;-64
2024/04/11 02:48:09;;;;;;;5.70;3.87;;;11.10;99.90;;;;;;5412978;26;21033;-64
2024/04/11 02:50:37;;;;;;;7.47;4.00;;;11.20;99.90;;;;;;5409414;26;20543;-64
2024/04/11 02:53:09;;;;;;;6.60;3.67;;;11.20;99.90;;;;;;5413004;26;20551;-65
2024/04/11 02:55:37;;;;;;;5.40;3.50;;;11.20;99.90;;;;;;5401555;26;20535;-64
2024/04/11 02:58:07;;;;;;;4.20;3.40;;;11.20;99.90;;;;;;5411024;26;20926;-64
2024/04/11 03:00:34;;;;;;;5.27;3.50;;;11.20;99.90;;;;;;5405062;26;20532;-64
2024/04/11 03:03:07;;;;;;;3.60;3.10;;;11.30;99.90;;;;;;5410320;26;20548;-63
2024/04/11 03:05:36;;;;;;;6.23;3.40;;;11.30;99.90;;;;;;5411919;26;20526;-64
2024/04/11 03:08:06;;;;;;;4.03;3.20;;;11.30;99.90;;;;;;5412168;26;20557;-64
2024/04/11 03:10:34;;;;;;;5.17;3.60;;;11.30;99.90;;;;;;5412372;26;20529;-63
2024/04/11 03:13:03;;;;;;;5.27;3.17;;;11.30;99.90;;;;;;5411525;26;21112;-65
2024/04/11 03:15:31;;;;;;;6.27;3.63;;;11.30;99.90;;;;;;5405375;26;20501;-64
2024/04/11 03:18:01;;;;;;;4.30;3.30;;;11.30;99.90;;;;;;5413291;26;20481;-64
2024/04/11 03:20:31;;;;;;;4.10;3.40;;;11.30;99.90;;;;;;5413368;26;21268;-64
2024/04/11 03:23:01;;;;;;;3.53;3.23;;;11.30;99.90;;;;;;5415145;26;20489;-63
2024/04/11 03:25:30;;;;;;;7.23;3.10;;;11.30;99.90;;;;;;5410276;26;20879;-63
2024/04/11 03:28:01;;;;;;;4.20;3.13;;;11.40;99.90;;;;;;5412438;26;20485;-64
2024/04/11 03:30:29;;;;;;;4.80;3.30;;;11.40;99.90;;;;;;5413339;26;20530;-64
2024/04/11 03:33:00;;;;;;;9.03;3.13;;;11.40;99.90;;;;;;5403771;26;20474;-64
2024/04/11 03:35:32;;;;;;;3.67;3.27;;;11.40;99.90;;;;;;5415726;26;20486;-63
2024/04/11 03:38:02;;;;;;;4.87;3.27;;;11.50;99.90;;;;;;5408529;26;20486;-65
2024/04/11 03:40:29;;;;;;;7.43;2.93;;;11.50;99.90;;;;;;5412144;26;23802;-61
2024/04/11 03:42:59;;;;;;;4.23;2.93;;;11.50;99.90;;;;;;5411723;26;21063;-63
2024/04/11 03:45:31;;;;;;;3.63;2.83;;;11.50;99.90;;;;;;5407953;26;20470;-63
2024/04/11 03:47:58;;;;;;;5.93;3.03;;;11.50;99.90;;;;;;5407129;26;20483;-63
2024/04/11 03:50:31;;;;;;;4.40;3.20;;;11.50;99.90;;;;;;5410539;26;20499;-63
2024/04/11 03:53:01;;;;;;;5.13;2.77;;;11.50;99.90;;;;;;5407404;26;20528;-62
2024/04/11 03:55:31;;;;;;;7.90;3.57;;;11.50;99.90;;;;;;5415283;26;20485;-62
2024/04/11 03:57:58;;;;;;;4.93;2.80;;;11.50;99.90;;;;;;5420412;26;20486;-63
2024/04/11 04:00:28;;;;;;;3.10;2.80;;;11.60;99.90;;;;;;5415484;26;21262;-63
2024/04/11 04:02:55;;;;;;;3.80;3.00;;;11.60;99.90;;;;;;5406735;26;20541;-65
2024/04/11 04:05:26;;;;;;;4.97;3.07;;;11.60;99.90;;;;;;5409562;26;20488;-63
2024/04/11 04:07:53;;;;;;;3.53;2.60;;;11.60;99.90;;;;;;5412951;26;20487;-64
2024/04/11 04:10:25;;;;;;;6.00;3.03;;;11.50;99.90;;;;;;5411451;26;20481;-63
2024/04/11 04:12:57;;;;;;;3.80;2.50;;;11.50;99.90;;;;;;5411295;26;20545;-63
2024/04/11 04:15:27;;;;;;;3.00;2.60;;;11.60;99.90;;;;;;5408677;26;20779;-64
2024/04/11 04:17:57;;;;;;;4.90;2.97;;;11.50;99.90;;;;;;5410986;26;20493;-63
2024/04/11 04:20:27;;;;;;;4.70;2.90;;;11.60;99.90;;;;;;5410841;26;20481;-63
2024/04/11 04:22:54;;;;;;;4.80;2.63;;;11.70;99.90;;;;;;5412652;26;20490;-63
2024/04/11 04:25:27;;;;;;;4.33;2.77;;;11.60;99.90;;;;;;5406384;26;20502;-63
2024/04/11 04:27:55;;;;;;;3.60;2.30;;;11.70;99.90;;;;;;5409069;26;20486;-64
2024/04/11 04:30:24;;;;;;;5.13;2.90;;;11.70;99.90;;;;;;5414001;26;21034;-64
2024/04/11 04:32:51;;;;;;;3.23;2.93;;;11.70;99.90;;;;;;5414613;26;20486;-63
2024/04/11 04:35:21;;;;;;;4.20;2.90;;;11.70;99.90;;;;;;5416332;26;20549;-63
2024/04/11 04:37:50;;;;;;;3.47;2.50;;;11.70;99.90;;;;;;5410236;26;21033;-65
2024/04/11 04:40:21;;;;;;;5.10;2.80;;;11.70;99.90;;;;;;5416393;26;22324;-63
2024/04/11 04:42:50;;;;;;;5.50;2.80;;;11.70;99.90;;;;;;5417107;26;20481;-63
2024/04/11 04:45:20;;;;;;;3.67;2.53;;;11.70;99.90;;;;;;5415832;26;20544;-63
2024/04/11 04:47:47;;;;;;;4.23;2.87;;;11.70;99.90;;;;;;5413782;26;20552;-62
2024/04/11 04:50:17;;;;;;;5.47;2.50;;;11.70;99.90;;;;;;5415389;26;20493;-64
2024/04/11 04:52:44;;;;;;;5.20;3.00;;;11.70;99.90;;;;;;5415431;26;20487;-64
2024/04/11 04:55:17;;;;;;;6.03;2.50;;;11.70;99.90;;;;;;5419364;26;20482;-63
2024/04/11 04:57:45;;;;;;;3.77;2.67;;;11.70;99.90;;;;;;5406845;26;20532;-63
2024/04/11 05:00:19;;;;;;;3.70;3.00;;;11.80;99.90;;;;;;5414409;26;20478;-65
2024/04/11 05:02:46;;;;;;;3.57;2.87;;;11.80;99.90;;;;;;5409020;26;20602;-64
2024/04/11 05:05:18;;;;;;;4.03;2.83;;;11.80;99.90;;;;;;5410725;26;20560;-63
2024/04/11 05:07:45;;;;;;;4.37;2.80;;;11.70;99.90;;;;;;5414460;26;20496;-66
2024/04/11 05:10:16;;;;;;;2.63;2.43;;;11.80;99.90;;;;;;5414192;26;20825;-64
2024/04/11 05:12:49;;;;;;;3.27;2.60;;;11.70;99.90;;;;;;5405945;26;20489;-67
2024/04/11 05:15:25;;;;;;;3.47;2.63;;;11.70;99.90;;;;;;5406256;26;23341;-63
2024/04/11 05:17:52;;;;;;;3.93;3.20;;;11.80;99.90;;;;;;5409445;26;20534;-63
2024/04/11 05:20:27;;;;;;;7.17;2.50;;;11.70;99.90;;;;;;5415071;26;20485;-63
2024/04/11 05:22:56;;;;;;;7.03;2.80;;;11.70;99.90;;;;;;5405969;26;20473;-64
2024/04/11 05:25:29;;;;;;;3.43;3.00;;;11.70;99.90;;;;;;5406034;26;20487;-65
2024/04/11 05:27:57;;;;;;;3.87;2.83;;;11.70;99.90;;;;;;5421422;26;20482;-63
2024/04/11 05:30:30;;;;;;;3.27;2.80;;;11.70;99.90;;;;;;5405427;26;20535;-63
2024/04/11 05:32:59;;;;;;;4.70;2.93;;;11.70;99.90;;;;;;5412862;26;20478;-64
2024/04/11 05:35:29;;;;;;;4.10;2.93;;;11.60;99.90;;;;;;5402770;26;20491;-63
2024/04/11 05:37:58;;;;;;;3.83;2.67;;;11.60;99.90;;;;;;5400919;26;20470;-66
2024/04/11 05:40:28;;;;;;;6.17;3.40;;;11.60;99.90;;;;;;5398311;26;24874;-71
2024/04/11 05:42:55;;;;;;;6.53;3.33;;;11.60;99.90;;;;;;5410075;26;20493;-65
2024/04/11 05:45:33;;;;;;;5.13;3.10;;;11.70;99.90;;;;;;5413030;26;20490;-63
2024/04/11 05:48:03;;;;;;;10.20;4.30;;;11.70;99.90;;;;;;5410799;26;20944;-64
2024/04/11 05:50:39;;;;;;;4.00;3.30;;;11.70;99.90;;;;;;5415248;26;20469;-63
2024/04/11 05:53:08;;;;;;;4.93;3.27;;;11.70;99.90;;;;;;5415042;26;20487;-63
2024/04/11 05:55:38;;;;;;;5.87;3.00;;;11.80;99.90;;;;;;5410467;26;21089;-66
2024/04/11 05:58:05;;;;;;;4.43;2.90;;;11.70;99.90;;;;;;5415741;26;20578;-64
2024/04/11 06:00:34;;;;;;;7.13;3.30;;;11.80;99.90;;;;;;5407760;26;20489;-63
2024/04/11 06:03:08;;;;;;;4.67;3.33;;;11.70;99.90;;;;;;5414629;26;21060;-64
2024/04/11 06:05:40;;;;;;;4.17;2.90;;;11.60;99.90;;;;;;5416699;26;20534;-63
2024/04/11 06:08:08;;;;;;;6.53;3.20;;;11.70;99.90;;;;;;5414792;26;20845;-64
2024/04/11 06:10:38;;;;;;;4.93;3.40;;;11.70;99.90;;;;;;5408884;26;20486;-66
2024/04/11 06:13:06;;;;;;;5.57;3.33;;;11.60;99.90;;;;;;5415337;26;20488;-64
2024/04/11 06:15:36;;;;;;;6.47;2.93;;;11.70;99.90;;;;;;5410983;26;20478;-64
2024/04/11 06:18:09;;;;;;;3.20;2.87;;;11.70;99.90;;;;;;5412204;26;21122;-64
2024/04/11 06:20:40;;;;;;;4.93;3.10;;;11.70;99.90;;;;;;5416491;26;21101;-63
2024/04/11 06:23:08;;;;;;;5.80;3.10;;;11.60;99.90;;;;;;5418599;26;20493;-63
2024/04/11 06:25:39;;;;;;;5.50;3.17;;;11.60;99.90;;;;;;5408389;26;20482;-65
2024/04/11 06:28:06;;;;;;;5.80;3.20;;;11.70;99.90;;;;;;5413839;26;20489;-65
2024/04/11 06:30:38;;;;;;;4.90;2.87;;;11.70;99.90;;;;;;5408977;26;20534;-63
2024/04/11 06:33:08;;;;;;;4.50;2.80;;;11.80;99.90;;;;;;5418397;26;20477;-63
2024/04/11 06:35:38;;;;;;;5.40;3.17;;;11.70;99.90;;;;;;5411667;26;20997;-65
2024/04/11 06:38:08;;;;;;;5.27;3.40;;;11.80;99.90;;;;;;5414084;26;20479;-63
2024/04/11 06:40:38;;;;;;;5.43;3.00;;;11.80;99.90;;;;;;5413243;26;20487;-63
2024/04/11 06:43:08;;;;;;;4.27;3.10;;;11.90;99.90;;;;;;5414024;26;20489;-63
2024/04/11 06:45:38;;;;;;;4.03;3.03;;;11.90;99.90;;;;;;5412744;26;20603;-62
2024/04/11 06:48:08;;;;;;;3.13;2.60;;;12.00;99.90;;;;;;5409530;26;20864;-63
2024/04/11 06:50:38;;;;;;;3.00;2.80;;;12.00;99.90;;;;;;5411690;26;20481;-63
2024/04/11 06:53:06;;;;;;;4.87;2.97;;;12.00;99.90;;;;;;5409386;26;20490;-66
2024/04/11 06:55:37;;;;;;;6.07;3.00;;;11.90;99.90;;;;;;5413325;26;22011;-64
2024/04/11 06:58:06;;;;;;;4.77;3.13;;;11.90;99.90;;;;;;5416743;26;20529;-63
2024/04/11 07:00:41;;;;;;;4.00;3.00;;;11.90;99.90;;;;;;5409037;26;20485;-64
2024/04/11 07:03:17;;;;;;;4.47;3.10;;;11.80;99.90;;;;;;5412675;26;21128;-63
2024/04/11 07:05:52;;;;;;;5.47;3.33;;;11.80;99.90;;;;;;5409939;26;20482;-65
2024/04/11 07:08:19;;;;;;;10.50;3.30;;;11.80;99.90;;;;;;5407567;26;21013;-64
2024/04/11 07:10:53;;;;;;;4.07;3.13;;;11.80;99.90;;;;;;5406597;26;21108;-63
2024/04/11 07:13:20;;;;;;;4.03;3.60;;;11.70;99.90;;;;;;5411233;26;20479;-64
2024/04/11 07:15:50;;;;;;;3.90;3.43;;;11.60;99.90;;;;;;5415897;26;20487;-63
2024/04/11 07:18:19;;;;;;;4.87;3.40;;;11.60;99.90;;;;;;5410168;26;20483;-66
2024/04/11 07:20:50;;;;;;;3.83;3.50;;;11.50;99.90;;;;;;5407682;26;20482;-66
2024/04/11 07:23:18;;;;;;;7.13;3.80;;;11.50;99.90;;;;;;5409849;26;20547;-66
2024/04/11 07:25:50;;;;;;;5.10;4.07;;;11.50;99.90;;;;;;5416998;26;20490;-63
2024/04/11 07:28:19;;;;;;;5.37;3.50;;;11.40;99.90;;;;;;5413463;26;20571;-65
2024/04/11 07:30:50;;;;;;;7.90;4.23;;;11.40;99.90;;;;;;5412012;26;20517;-65
2024/04/11 07:33:20;;;;;;;5.60;4.00;;;11.30;99.90;;;;;;5421723;26;20483;-64
2024/04/11 07:35:49;;;;;;;4.30;3.40;;;11.30;99.90;;;;;;5416302;26;20541;-64
2024/04/11 07:38:17;;;;;;;7.10;3.73;;;11.30;99.90;;;;;;5413547;26;20521;-65
2024/04/11 07:40:54;;;;;;;5.60;3.70;;;11.20;99.90;;;;;;5410134;26;20913;-63
2024/04/11 07:43:26;;;;;;;7.93;4.07;;;11.20;99.90;;;;;;5420812;26;20598;-67
2024/04/11 07:45:54;;;;;;;6.17;4.30;;;11.20;99.90;;;;;;5423147;26;20482;-64
2024/04/11 07:48:28;;;;;;;4.83;4.03;;;11.20;99.90;;;;;;5410060;26;20477;-64
2024/04/11 07:51:02;;;;;;;5.47;3.80;;;11.10;99.90;;;;;;5418937;26;21094;-64
2024/04/11 07:53:32;;;;;;;7.93;4.30;;;11.10;99.90;;;;;;5410205;26;20780;-64
2024/04/11 07:55:59;;;;;;;5.20;4.00;;;11.10;99.90;;;;;;5412256;26;20490;-65
2024/04/11 07:58:29;;;;;;;6.03;3.73;;;11.10;99.90;;;;;;5411977;26;20541;-64
2024/04/11 08:00:56;;;;;;;7.70;4.20;;;11.10;99.90;;;;;;5417899;26;20485;-63
2024/04/11 08:03:28;;;;;;;5.73;3.90;;;11.10;99.90;;;;;;5413462;26;21194;-65
2024/04/11 08:05:56;;;;;;;5.87;4.53;;;11.00;99.90;;;;;;5413178;26;20490;-63
2024/04/11 08:08:26;;;;;;;6.20;4.13;;;11.00;99.90;;;;;;5410440;26;20465;-65
2024/04/11 08:11:02;;;;;;;4.97;4.27;;;11.00;99.90;;;;;;5419828;26;20485;-63
2024/04/11 08:13:32;;;;;;;7.30;3.97;;;11.00;99.90;;;;;;5419817;26;20492;-64
2024/04/11 08:16:04;;;;;;;6.70;4.23;;;11.00;99.90;;;;;;5424313;26;20526;-63
2024/04/11 08:18:37;;;;;;;4.73;4.23;;;11.00;99.90;;;;;;5421289;26;20482;-63
2024/04/11 08:21:08;;;;;;;6.17;4.23;;;11.00;99.90;;;;;;5416845;26;20478;-62
2024/04/11 08:23:39;;;;;;;7.43;4.20;;;10.90;99.90;;;;;;5422582;26;21212;-64
2024/04/11 08:26:07;;;;;;;6.43;4.20;;;10.90;99.90;;;;;;5425985;26;20573;-64
2024/04/11 08:28:37;;;;;;;7.00;4.40;;;10.90;99.90;;;;;;5427147;26;20485;-63
2024/04/11 08:31:05;;;;;;;5.83;4.30;;;10.90;99.90;;;;;;5419862;26;20536;-63
2024/04/11 08:33:39;;;;;;;8.47;4.93;;;10.90;99.90;;;;;;5423733;26;20485;-64
2024/04/11 08:36:08;;;;;;;4.83;4.00;;;11.00;99.90;;;;;;5417622;26;20544;-64
2024/04/11 08:38:40;;;;;;;7.17;4.30;;;11.10;99.90;;;;;;5413700;26;20911;-64
2024/04/11 08:41:09;;;;;;;4.60;4.20;;;11.10;99.90;;;;;;5413275;26;20834;-63
2024/04/11 08:43:40;;;;;;;5.40;4.10;;;11.20;99.90;;;;;;5419162;26;20534;-63
2024/04/11 08:46:08;;;;;;;5.10;4.30;;;11.20;99.90;;;;;;5420688;26;20502;-63
2024/04/11 08:48:42;;;;;;;5.53;3.80;;;11.20;99.90;;;;;;5413956;26;20481;-63
2024/04/11 08:51:15;;;;;;;4.53;4.13;;;11.20;99.90;;;;;;5413695;26;20948;-63
2024/04/11 08:53:48;;;;;;;6.10;4.00;;;11.20;99.90;;;;;;5422534;26;20604;-64
2024/04/11 08:56:30;;;;;;;5.73;4.10;;;11.30;99.90;;;;;;5419164;26;20474;-64
2024/04/11 08:59:00;;;;;;;7.70;4.40;;;11.30;99.90;;;;;;5424259;26;20927;-64
2024/04/11 09:01:29;;;;;;;6.10;4.57;;;11.30;99.90;;;;;;5423125;26;21371;-66
2024/04/11 09:04:02;;;;;;;5.40;4.20;;;11.30;99.90;;;;;;5419406;26;20494;-64
2024/04/11 09:06:32;;;;;;;4.73;4.00;;;11.30;99.90;;;;;;5422104;26;21380;-64
2024/04/11 09:09:06;;;;;;;5.30;4.33;;;11.40;99.90;;;;;;5418294;26;20537;-63
2024/04/11 09:11:35;;;;;;;7.07;4.83;;;11.40;99.90;;;;;;5408606;26;20853;-64
2024/04/11 09:14:05;;;;;;;5.83;4.33;;;11.50;99.90;;;;;;5413322;26;20485;-64
2024/04/11 09:16:33;;;;;;;4.50;3.97;;;11.50;99.90;;;;;;5410114;26;20524;-64
2024/04/11 09:19:08;;;;;;;5.80;4.97;;;11.60;99.90;;;;;;5414978;26;20482;-65
2024/04/11 09:21:45;;;;;;;7.33;4.50;;;11.60;99.90;;;;;;5412608;26;20490;-64
2024/04/11 09:24:16;;;;;;;5.73;4.23;;;11.70;99.90;;;;;;5417237;26;20478;-66
2024/04/11 09:26:49;;;;;;;8.37;4.70;;;11.80;99.90;;;;;;5424095;26;20544;-64
2024/04/11 09:29:17;;;;;;;4.40;4.00;;;11.90;99.90;;;;;;5417051;26;20482;-64
2024/04/11 09:31:52;;;;;;;5.63;4.70;;;11.90;99.90;;;;;;5412988;26;20485;-64
2024/04/11 09:34:26;;;;;;;5.07;4.30;;;11.90;99.90;;;;;;5415076;26;20531;-64
2024/04/11 09:36:59;;;;;;;9.07;4.43;;;12.00;99.90;;;;;;5420049;26;20906;-66
2024/04/11 09:39:45;;;;;;;4.37;3.90;;;12.10;99.90;;;;;;5416925;26;20481;-64
2024/04/11 09:42:18;;;;;;;6.60;4.30;;;12.00;99.90;;;;;;5409592;26;20538;-65
2024/04/11 09:44:48;;;;;;;8.93;4.73;;;12.00;99.90;;;;;;5416194;26;20489;-63
2024/04/11 09:47:24;;;;;;;5.90;4.03;;;12.10;99.90;;;;;;5414250;26;20596;-65
2024/04/11 09:49:59;;;;;;;6.70;5.40;;;12.10;99.90;;;;;;5423298;26;20840;-64
2024/04/11 09:52:34;;;;;;;4.30;3.90;;;12.10;99.90;;;;;;5413115;26;20488;-65
2024/04/11 09:55:03;;;;;;;6.53;4.80;;;12.10;99.90;;;;;;5418550;26;20486;-64
2024/04/11 09:57:36;;;;;;;8.83;6.37;;;12.10;99.90;;;;;;5412207;26;21224;-67
2024/04/11 10:00:18;;;;;;;8.43;5.73;;;12.10;99.90;;;;;;5418912;26;20486;-64
2024/04/11 10:02:55;;;;;;;5.07;4.20;;;12.10;99.90;;;;;;5420885;26;20535;-64
2024/04/11 10:05:35;;;;;;;10.80;4.80;;;12.10;99.90;;;;;;5416388;26;21095;-63
2024/04/11 10:08:16;;;;;;;5.50;4.90;;;12.10;99.90;;;;;;5414672;26;20481;-66
2024/04/11 10:10:50;;;;;;;9.17;4.80;;;12.00;99.90;;;;;;5416389;26;21431;-68
2024/04/11 10:13:24;;;;;;;7.40;5.70;;;12.00;99.90;;;;;;5416478;26;20486;-64
2024/04/11 10:16:04;;;;;;;6.50;5.00;;;12.00;99.90;;;;;;5419398;26;20475;-66
2024/04/11 10:18:45;;;;;;;6.10;4.83;;;12.10;99.90;;;;;;5414714;26;21224;-64
2024/04/11 10:21:25;;;;;;;6.27;4.80;;;12.10;99.90;;;;;;5412181;26;20564;-64
2024/04/11 10:24:16;;;;;;;8.07;5.83;;;12.20;99.90;;;;;;5419090;26;20492;-62
2024/04/11 10:26:47;;;;;;;6.83;5.10;;;12.20;99.90;;;;;;5422883;26;20540;-65
2024/04/11 10:29:18;;;;;;;9.33;6.17;;;12.10;99.90;;;;;;5415951;26;20497;-66
2024/04/11 10:31:47;;;;;;;6.80;4.80;;;12.20;99.90;;;;;;5421186;26;20477;-65
2024/04/11 10:34:19;;;;;;;7.33;5.60;;;12.20;99.90;;;;;;5420465;26;20544;-67
2024/04/11 10:36:54;;;;;;;6.20;5.10;;;12.30;99.90;;;;;;5416085;26;20541;-64
2024/04/11 10:39:24;;;;;;;6.83;5.77;;;12.40;99.90;;;;;;5422282;26;20484;-65
2024/04/11 10:41:52;;;;;;;6.80;5.40;;;12.50;99.90;;;;;;5415342;26;20902;-64
2024/04/11 10:44:28;;;;;;;6.00;5.40;;;12.60;99.90;;;;;;5416424;26;21100;-65
2024/04/11 10:46:55;;;;;;;9.03;5.47;;;12.70;99.90;;;;;;5424679;26;20493;-64
2024/04/11 10:49:28;;;;;;;7.13;5.60;;;12.70;99.90;;;;;;5422269;26;20529;-64
2024/04/11 10:51:58;;;;;;;6.47;5.33;;;12.90;99.90;;;;;;5420483;26;20607;-64
2024/04/11 10:54:30;;;;;;;7.00;5.77;;;13.00;99.90;;;;;;5421236;26;20527;-65
2024/04/11 10:56:58;;;;;;;6.30;4.50;;;13.00;99.90;;;;;;5424909;26;20475;-64
2024/04/11 10:59:32;;;;;;;6.40;5.70;;;13.10;99.90;;;;;;5423792;26;20477;-64
2024/04/11 11:02:07;;;;;;;13.83;10.30;;;13.20;99.90;;;;;;5414278;26;21365;-63
2024/04/11 11:04:43;;;;;;;9.30;6.40;;;13.20;99.90;;;;;;5421761;26;21066;-65
2024/04/11 11:07:13;;;;;;;7.33;5.40;;;13.10;99.90;;;;;;5414618;26;20643;-65
2024/04/11 11:09:45;;;;;;;8.20;5.87;;;13.20;99.90;;;;;;5421849;26;20471;-64
2024/04/11 11:12:15;;;;;;;6.20;5.47;;;13.20;99.90;;;;;;5420223;26;20476;-66
2024/04/11 11:14:46;;;;;;;7.33;4.83;;;13.20;99.90;;;;;;5419992;26;20485;-65
2024/04/11 11:17:17;;;;;;;7.60;5.50;;;13.20;99.90;;;;;;5420681;26;20481;-66
2024/04/11 11:19:49;;;;;;;6.47;5.63;;;13.30;99.90;;;;;;5413291;26;20534;-64
2024/04/11 11:22:29;;;;;;;6.93;5.63;;;13.40;99.90;;;;;;5417804;26;21090;-64
2024/04/11 11:25:00;;;;;;;7.50;6.20;;;13.50;99.90;;;;;;5421577;26;20486;-64
2024/04/11 11:27:31;;;;;;;5.60;5.10;;;13.60;99.90;;;;;;5418874;26;21129;-64
2024/04/11 11:30:05;;;;;;;6.53;5.60;;;13.70;99.90;;;;;;5416535;26;20481;-63
2024/04/11 11:32:35;;;;;;;5.90;5.40;;;13.80;99.90;;;;;;5416369;26;21162;-64
2024/04/11 11:35:09;;;;;;;6.47;5.50;;;14.00;99.90;;;;;;5421663;26;20525;-64
2024/04/11 11:37:39;;;;;;;8.00;7.20;;;14.10;99.90;;;;;;5418958;26;20541;-63
2024/04/11 11:40:38;;;;;;;6.80;6.20;;;14.20;99.90;;;;;;5420362;26;20532;-65
2024/04/11 11:42:58;;;;;;;7.70;6.00;;;14.10;99.90;;;;;;5415401;26;20482;-64
2024/04/11 11:45:44;;;;;;;6.90;6.20;;;14.10;99.90;;;;;;5414483;26;20537;-64
2024/04/11 11:48:12;;;;;;;6.60;6.00;;;14.10;99.90;;;;;;5416754;26;20533;-64
2024/04/11 11:50:45;;;;;;;7.60;6.60;;;14.10;99.90;;;;;;5419904;26;20495;-66
2024/04/11 11:53:24;;;;;;;8.43;7.33;;;14.10;99.90;;;;;;5425934;26;20545;-63
2024/04/11 11:55:58;;;;;;;7.13;6.43;;;14.10;99.90;;;;;;5423344;26;20608;-64
2024/04/11 11:58:34;;;;;;;6.50;6.00;;;14.00;99.90;;;;;;5420858;26;20467;-64
2024/04/11 12:01:19;;;;;;;7.33;6.63;;;14.00;99.90;;;;;;5415783;26;22269;-67
2024/04/11 12:03:55;;;;;;;8.33;7.33;;;14.10;99.90;;;;;;5418236;26;20608;-65
2024/04/11 12:06:33;;;;;;;7.90;7.10;;;14.10;99.90;;;;;;5421715;26;20534;-64
2024/04/11 12:09:10;;;;;;;8.07;7.27;;;14.10;99.90;;;;;;5418787;26;20556;-67
2024/04/11 12:11:49;;;;;;;9.57;7.70;;;14.10;99.90;;;;;;5422654;26;20485;-64
2024/04/11 12:14:28;;;;;;;7.93;7.23;;;14.20;99.90;;;;;;5413782;26;20492;-67
2024/04/11 12:16:58;;;;;;;8.47;7.67;;;14.20;99.90;;;;;;5414865;26;20478;-63
2024/04/11 12:19:28;;;;;;;7.80;7.10;;;14.20;99.90;;;;;;5412880;26;21184;-64
2024/04/11 12:22:10;;;;;;;9.70;7.27;;;14.20;99.90;;;;;;5416376;26;20477;-64
2024/04/11 12:24:41;;;;;;;9.90;7.63;;;14.20;99.90;;;;;;5413861;26;20493;-64
2024/04/11 12:27:13;;;;;;;10.90;9.80;;;14.30;99.90;;;;;;5415760;26;20549;-64
2024/04/11 12:29:42;;;;;;;7.83;7.13;;;14.30;99.90;;;;;;5418058;26;20814;-64
2024/04/11 12:32:13;;;;;;;8.23;7.20;;;14.30;99.90;;;;;;5417939;26;20601;-65
2024/04/11 12:34:45;;;;;;;8.53;7.77;;;14.40;99.90;;;;;;5420991;26;20482;-63
2024/04/11 12:37:16;;;;;;;8.10;7.40;;;14.40;99.90;;;;;;5419370;26;20982;-62
2024/04/11 12:39:53;;;;;;;9.03;7.60;;;14.40;99.90;;;;;;5417940;26;20547;-65
2024/04/11 12:42:23;;;;;;;9.47;7.67;;;14.40;99.90;;;;;;5420633;26;20489;-64
2024/04/11 12:44:55;;;;;;;7.90;7.20;;;14.50;99.90;;;;;;5420294;26;20547;-64
2024/04/11 12:47:38;;;;;;;8.73;7.27;;;14.50;99.90;;;;;;5420266;26;20571;-64
2024/04/11 12:50:12;;;;;;;8.70;8.00;;;14.40;99.90;;;;;;5424270;26;20891;-64
2024/04/11 12:52:44;;;;;;;8.90;8.00;;;14.40;99.90;;;;;;5418890;26;20481;-63
2024/04/11 12:55:24;;;;;;;8.83;7.93;;;14.40;99.90;;;;;;5406244;26;20549;-64
2024/04/11 12:58:01;;;;;;;10.33;8.63;;;14.50;99.90;;;;;;5414554;26;20538;-65
2024/04/11 13:00:35;;;;;;;8.73;7.93;;;14.50;99.90;;;;;;5419596;26;20837;-63
2024/04/11 13:03:15;;;;;;;9.13;7.90;;;14.50;99.90;;;;;;5417324;26;20542;-64
2024/04/11 13:05:51;;;;;;;9.93;9.03;;;14.50;99.90;;;;;;5417492;26;20529;-64